createdAt,value
2018-11-10T00:00:10.197Z,100922.28
2018-11-10T00:02:38.584Z,100919.21
2018-11-10T00:05:07.004Z,100920.05
2018-11-10T00:07:35.381Z,100915.12
2018-11-10T00:10:03.961Z,100917.79
2018-11-10T00:12:32.296Z,100915.58
2018-11-10T00:15:01.605Z,100914.33
2018-11-10T00:17:29.976Z,100916.54
2018-11-10T00:19:58.843Z,100908.13
2018-11-10T00:22:27.255Z,100912.19
2018-11-10T00:24:55.738Z,100908.98
2018-11-10T00:27:24.171Z,100905.45
2018-11-10T00:29:53.362Z,100898.91
2018-11-10T00:32:22.157Z,100895.31
2018-11-10T00:34:50.583Z,100903.84
2018-11-10T00:37:18.917Z,100904.66
2018-11-10T00:39:47.341Z,100894.44
2018-11-10T00:42:15.702Z,100898.04
2018-11-10T00:44:44.116Z,100889.23
2018-11-10T00:47:12.489Z,100888.80
2018-11-10T00:49:40.913Z,100888.28
2018-11-10T00:52:09.355Z,100885.75
2018-11-10T00:54:37.785Z,100886.30
2018-11-10T00:57:06.177Z,100871.84
2018-11-10T00:59:34.528Z,100881.27
2018-11-10T01:02:02.911Z,100878.19
2018-11-10T01:04:31.290Z,100879.14
2018-11-10T01:06:59.657Z,100884.05
2018-11-10T01:09:28.153Z,100890.75
2018-11-10T01:11:56.516Z,100896.06
2018-11-10T01:14:25.314Z,100897.42
2018-11-10T01:16:53.667Z,100897.42
2018-11-10T01:19:22.045Z,100888.05
2018-11-10T01:21:50.414Z,100885.47
2018-11-10T01:24:18.792Z,100886.07
2018-11-10T01:26:47.139Z,100881.16
2018-11-10T01:29:15.561Z,100876.89
2018-11-10T01:31:43.949Z,100872.09
2018-11-10T01:34:12.327Z,100869.50
2018-11-10T01:36:40.688Z,100863.81
2018-11-10T01:39:09.973Z,100866.97
2018-11-10T01:41:38.969Z,100865.69
2018-11-10T01:44:07.965Z,100863.48
2018-11-10T01:46:36.463Z,100857.28
2018-11-10T01:49:05.029Z,100852.84
2018-11-10T01:51:33.421Z,100857.30
2018-11-10T01:54:02.081Z,100853.82
2018-11-10T01:56:30.981Z,100855.17
2018-11-10T01:58:59.429Z,100848.97
2018-11-10T02:01:28.665Z,100848.23
2018-11-10T02:03:57.136Z,100850.82
2018-11-10T02:06:25.572Z,100841.56
2018-11-10T02:08:53.941Z,100841.09
2018-11-10T02:11:22.337Z,100839.69
2018-11-10T02:13:50.704Z,100850.90
2018-11-10T02:16:19.099Z,100842.48
2018-11-10T02:18:47.475Z,100845.64
2018-11-10T02:21:15.832Z,100840.38
2018-11-10T02:23:44.247Z,100840.44
2018-11-10T02:26:12.645Z,100832.49
2018-11-10T02:28:41.055Z,100824.89
2018-11-10T02:31:09.410Z,100824.97
2018-11-10T02:33:37.785Z,100825.03
2018-11-10T02:36:06.165Z,100823.36
2018-11-10T02:38:34.613Z,100826.11
2018-11-10T02:41:03.033Z,100823.36
2018-11-10T02:43:31.430Z,100827.83
2018-11-10T02:45:59.781Z,100831.31
2018-11-10T02:48:28.161Z,100822.91
2018-11-10T02:50:56.561Z,100832.65
2018-11-10T02:53:24.912Z,100829.65
2018-11-10T02:55:53.272Z,100826.11
2018-11-10T02:58:21.633Z,100823.17
2018-11-10T03:00:50.025Z,100820.91
2018-11-10T03:03:18.395Z,100820.06
2018-11-10T03:05:46.760Z,100820.06
2018-11-10T03:08:15.117Z,100817.39
2018-11-10T03:10:44.143Z,100816.45
2018-11-10T03:13:12.916Z,100815.16
2018-11-10T03:15:41.292Z,100817.39
2018-11-10T03:18:09.642Z,100816.06
2018-11-10T03:20:38.032Z,100810.84
2018-11-10T03:23:06.434Z,100811.73
2018-11-10T03:25:34.844Z,100810.91
2018-11-10T03:28:03.257Z,100814.04
2018-11-10T03:30:31.701Z,100814.91
2018-11-10T03:33:00.069Z,100807.50
2018-11-10T03:35:28.465Z,100811.58
2018-11-10T03:37:56.891Z,100805.86
2018-11-10T03:40:26.073Z,100792.13
2018-11-10T03:42:55.298Z,100797.06
2018-11-10T03:45:23.986Z,100793.71
2018-11-10T03:47:52.496Z,100793.17
2018-11-10T03:50:20.911Z,100786.92
2018-11-10T03:52:49.274Z,100793.66
2018-11-10T03:55:17.687Z,100793.33
2018-11-10T03:57:46.087Z,100800.05
2018-11-10T04:00:15.385Z,100795.25
2018-11-10T04:02:45.009Z,100789.13
2018-11-10T04:05:13.873Z,100795.38
2018-11-10T04:07:43.572Z,100794.38
2018-11-10T04:10:12.416Z,100795.80
2018-11-10T04:12:40.960Z,100784.86
2018-11-10T04:15:09.365Z,100779.92
2018-11-10T04:17:37.772Z,100777.06
2018-11-10T04:20:07.222Z,100774.45
2018-11-10T04:22:36.624Z,100772.73
2018-11-10T04:25:06.623Z,100770.58
2018-11-10T04:27:35.195Z,100770.67
2018-11-10T04:30:04.729Z,100764.58
2018-11-10T04:32:33.625Z,100765.59
2018-11-10T04:35:02.014Z,100759.31
2018-11-10T04:37:30.402Z,100762.05
2018-11-10T04:39:59.193Z,100755.92
2018-11-10T04:42:27.552Z,100751.92
2018-11-10T04:44:55.958Z,100747.93
2018-11-10T04:47:24.364Z,100751.12
2018-11-10T04:49:52.770Z,100758.18
2018-11-10T04:52:21.133Z,100753.38
2018-11-10T04:54:49.519Z,100753.31
2018-11-10T04:57:17.885Z,100752.05
2018-11-10T04:59:46.227Z,100744.34
2018-11-10T05:02:14.607Z,100743.92
2018-11-10T05:04:43.011Z,100742.20
2018-11-10T05:07:11.403Z,100740.45
2018-11-10T05:09:39.752Z,100738.25
2018-11-10T05:12:08.099Z,100744.34
2018-11-10T05:14:36.481Z,100748.80
2018-11-10T05:17:05.428Z,100750.14
2018-11-10T05:19:33.801Z,100749.78
2018-11-10T05:22:02.305Z,100739.48
2018-11-10T05:24:30.706Z,100743.35
2018-11-10T05:26:59.120Z,100733.20
2018-11-10T05:29:27.488Z,100739.00
2018-11-10T05:31:56.452Z,100740.26
2018-11-10T05:34:24.810Z,100747.33
2018-11-10T05:36:53.184Z,100746.81
2018-11-10T05:39:21.533Z,100743.74
2018-11-10T05:41:50.321Z,100743.74
2018-11-10T05:44:19.981Z,100738.00
2018-11-10T05:46:48.364Z,100737.08
2018-11-10T05:49:16.956Z,100746.81
2018-11-10T05:51:46.160Z,100744.02
2018-11-10T05:54:14.592Z,100741.47
2018-11-10T05:56:43.712Z,100750.79
2018-11-10T05:59:12.085Z,100749.74
2018-11-10T06:01:40.463Z,100744.34
2018-11-10T06:04:08.867Z,100746.55
2018-11-10T06:06:37.320Z,100742.28
2018-11-10T06:09:08.365Z,100749.00
2018-11-10T06:11:37.252Z,100756.58
2018-11-10T06:14:05.972Z,100758.27
2018-11-10T06:16:34.482Z,100755.20
2018-11-10T06:19:03.302Z,100753.81
2018-11-10T06:21:31.679Z,100744.00
2018-11-10T06:24:00.032Z,100745.81
2018-11-10T06:26:28.989Z,100737.01
2018-11-10T06:28:57.385Z,100737.88
2018-11-10T06:31:25.753Z,100730.83
2018-11-10T06:33:54.405Z,100732.60
2018-11-10T06:36:22.789Z,100735.16
2018-11-10T06:38:51.335Z,100732.42
2018-11-10T06:41:19.740Z,100732.34
2018-11-10T06:43:48.597Z,100732.83
2018-11-10T06:46:17.172Z,100727.55
2018-11-10T06:48:45.565Z,100727.22
2018-11-10T06:51:13.920Z,100730.34
2018-11-10T06:53:42.529Z,100730.34
2018-11-10T06:56:11.492Z,100730.47
2018-11-10T06:58:40.826Z,100722.81
2018-11-10T07:01:09.635Z,100715.71
2018-11-10T07:03:38.099Z,100716.62
2018-11-10T07:06:06.833Z,100725.42
2018-11-10T07:08:35.201Z,100729.50
2018-11-10T07:11:03.619Z,100735.60
2018-11-10T07:13:31.953Z,100733.75
2018-11-10T07:16:00.296Z,100735.83
2018-11-10T07:18:28.812Z,100727.50
2018-11-10T07:20:57.166Z,100737.09
2018-11-10T07:23:25.539Z,100734.73
2018-11-10T07:25:53.917Z,100740.94
2018-11-10T07:28:22.430Z,100747.08
2018-11-10T07:30:51.049Z,100738.42
2018-11-10T07:33:19.407Z,100736.09
2018-11-10T07:35:47.807Z,100738.75
2018-11-10T07:38:16.185Z,100738.01
2018-11-10T07:40:44.533Z,100743.67
2018-11-10T07:43:13.143Z,100742.13
2018-11-10T07:45:41.570Z,100741.27
2018-11-10T07:48:10.006Z,100734.52
2018-11-10T07:50:38.395Z,100731.72
2018-11-10T07:53:06.804Z,100734.92
2018-11-10T07:55:35.319Z,100732.59
2018-11-10T07:58:03.663Z,100734.58
2018-11-10T08:00:32.148Z,100735.53
2018-11-10T08:03:01.039Z,100740.23
2018-11-10T08:05:29.863Z,100740.72
2018-11-10T08:07:58.267Z,100739.63
2018-11-10T08:10:26.658Z,100732.69
2018-11-10T08:12:55.005Z,100730.78
2018-11-10T08:15:23.581Z,100730.17
2018-11-10T08:17:52.582Z,100719.45
2018-11-10T08:20:21.366Z,100728.16
2018-11-10T08:22:49.953Z,100724.47
2018-11-10T08:25:18.327Z,100721.27
2018-11-10T08:27:46.681Z,100713.62
2018-11-10T08:30:15.735Z,100714.52
2018-11-10T08:32:44.529Z,100717.04
2018-11-10T08:35:14.851Z,100721.89
2018-11-10T08:37:43.368Z,100718.90
2018-11-10T08:40:14.361Z,100708.69
2018-11-10T08:42:42.824Z,100717.73
2018-11-10T08:45:12.470Z,100716.00
2018-11-10T08:47:41.557Z,100727.65
2018-11-10T08:50:11.164Z,100722.22
2018-11-10T08:52:39.949Z,100720.80
2018-11-10T08:55:08.947Z,100712.63
2018-11-10T08:57:38.038Z,100716.39
2018-11-10T09:00:07.823Z,100715.06
2018-11-10T09:02:36.905Z,100713.10
2018-11-10T09:05:06.247Z,100697.61
2018-11-10T09:07:34.803Z,100700.92
2018-11-10T09:10:03.212Z,100705.59
2018-11-10T09:12:31.562Z,100702.42
2018-11-10T09:14:59.975Z,100695.86
2018-11-10T09:17:28.871Z,100707.66
2018-11-10T09:19:58.606Z,100697.80
2018-11-10T09:22:27.516Z,100707.59
2018-11-10T09:24:55.975Z,100703.64
2018-11-10T09:27:24.338Z,100700.41
2018-11-10T09:29:52.771Z,100704.25
2018-11-10T09:32:21.113Z,100700.59
2018-11-10T09:34:49.488Z,100703.39
2018-11-10T09:37:17.912Z,100708.77
2018-11-10T09:39:46.856Z,100715.08
2018-11-10T09:42:15.273Z,100719.72
2018-11-10T09:44:43.668Z,100716.14
2018-11-10T09:47:13.345Z,100715.98
2018-11-10T09:49:41.753Z,100711.84
2018-11-10T09:52:10.107Z,100705.49
2018-11-10T09:54:38.521Z,100700.61
2018-11-10T09:57:06.924Z,100694.22
2018-11-10T09:59:35.321Z,100691.61
2018-11-10T10:02:04.047Z,100695.16
2018-11-10T10:04:32.102Z,100689.66
2018-11-10T10:07:00.465Z,100697.36
2018-11-10T10:09:28.855Z,100687.16
2018-11-10T10:11:57.291Z,100686.85
2018-11-10T10:14:25.669Z,100677.66
2018-11-10T10:16:54.048Z,100673.61
2018-11-10T10:19:22.469Z,100676.09
2018-11-10T10:21:50.918Z,100674.87
2018-11-10T10:24:19.265Z,100663.96
2018-11-10T10:26:47.620Z,100658.55
2018-11-10T10:29:16.023Z,100650.52
2018-11-10T10:31:44.531Z,100649.86
2018-11-10T10:34:12.958Z,100646.94
2018-11-10T10:36:41.293Z,100651.55
2018-11-10T10:39:10.315Z,100641.82
2018-11-10T10:41:39.307Z,100648.09
2018-11-10T10:44:08.699Z,100646.91
2018-11-10T10:46:37.112Z,100650.45
2018-11-10T10:49:06.295Z,100647.22
2018-11-10T10:51:35.061Z,100660.25
2018-11-10T10:54:03.436Z,100670.69
2018-11-10T10:56:31.855Z,100669.11
2018-11-10T10:59:00.213Z,100665.16
2018-11-10T11:01:33.836Z,100662.54
2018-11-10T11:04:09.389Z,100666.17
2018-11-10T11:06:37.741Z,100662.54
2018-11-10T11:09:07.406Z,100658.59
2018-11-10T11:11:35.882Z,100661.67
2018-11-10T11:14:04.235Z,100658.09
2018-11-10T11:16:32.581Z,100651.73
2018-11-10T11:19:00.945Z,100643.90
2018-11-10T11:21:29.329Z,100642.21
2018-11-10T11:23:57.701Z,100647.52
2018-11-10T11:26:26.073Z,100633.77
2018-11-10T11:28:54.451Z,100634.90
2018-11-10T11:31:22.849Z,100631.22
2018-11-10T11:33:51.273Z,100630.48
2018-11-10T11:36:19.616Z,100628.06
2018-11-10T11:38:47.997Z,100632.61
2018-11-10T11:41:16.433Z,100626.59
2018-11-10T11:43:44.785Z,100622.05
2018-11-10T11:46:13.148Z,100609.94
2018-11-10T11:48:41.524Z,100619.45
2018-11-10T11:51:09.963Z,100624.64
2018-11-10T11:53:38.388Z,100627.42
2018-11-10T11:56:06.748Z,100624.61
2018-11-10T11:58:35.143Z,100622.66
2018-11-10T12:01:03.744Z,100611.75
2018-11-10T12:03:32.109Z,100609.54
2018-11-10T12:06:00.471Z,100612.39
2018-11-10T12:08:29.008Z,100612.09
2018-11-10T12:10:57.385Z,100605.21
2018-11-10T12:13:25.758Z,100603.88
2018-11-10T12:15:54.132Z,100605.08
2018-11-10T12:18:22.545Z,100586.34
2018-11-10T12:20:50.971Z,100591.44
2018-11-10T12:23:19.349Z,100587.75
2018-11-10T12:25:47.933Z,100605.45
2018-11-10T12:28:16.332Z,100616.58
2018-11-10T12:30:44.719Z,100619.27
2018-11-10T12:33:13.123Z,100624.23
2018-11-10T12:35:41.664Z,100614.77
2018-11-10T12:38:10.038Z,100612.86
2018-11-10T12:40:38.408Z,100619.52
2018-11-10T12:43:06.852Z,100616.70
2018-11-10T12:45:35.227Z,100604.20
2018-11-10T12:48:03.612Z,100610.23
2018-11-10T12:50:31.979Z,100623.19
2018-11-10T12:53:00.452Z,100614.27
2018-11-10T12:55:28.816Z,100607.30
2018-11-10T12:57:57.234Z,100601.94
2018-11-10T13:00:25.629Z,100604.06
2018-11-10T13:02:54.056Z,100600.59
2018-11-10T13:05:22.450Z,100599.25
2018-11-10T13:07:50.840Z,100610.23
2018-11-10T13:10:19.189Z,100612.98
2018-11-10T13:12:48.211Z,100603.41
2018-11-10T13:15:17.102Z,100597.09
2018-11-10T13:17:45.505Z,100593.63
2018-11-10T13:20:15.018Z,100584.77
2018-11-10T13:22:43.460Z,100577.09
2018-11-10T13:25:12.806Z,100570.34
2018-11-10T13:27:41.238Z,100573.07
2018-11-10T13:30:11.403Z,100566.31
2018-11-10T13:32:39.791Z,100555.73
2018-11-10T13:35:08.979Z,100548.64
2018-11-10T13:37:37.372Z,100550.37
2018-11-10T13:40:06.403Z,100553.30
2018-11-10T13:42:34.764Z,100544.77
2018-11-10T13:45:03.522Z,100549.05
2018-11-10T13:47:32.405Z,100548.52
2018-11-10T13:50:01.547Z,100548.04
2018-11-10T13:52:30.246Z,100549.23
2018-11-10T13:54:58.373Z,100550.02
2018-11-10T13:57:26.750Z,100546.80
2018-11-10T13:59:55.141Z,100572.55
2018-11-10T14:02:23.546Z,100580.61
2018-11-10T14:04:51.959Z,100566.72
2018-11-10T14:07:20.353Z,100567.53
2018-11-10T14:09:48.785Z,100564.03
2018-11-10T14:12:17.199Z,100554.64
2018-11-10T14:14:45.613Z,100558.66
2018-11-10T14:17:14.324Z,100560.39
2018-11-10T14:19:43.122Z,100566.44
2018-11-10T14:22:12.047Z,100556.61
2018-11-10T14:24:40.461Z,100552.20
2018-11-10T14:27:08.875Z,100546.70
2018-11-10T14:29:37.389Z,100548.97
2018-11-10T14:32:06.376Z,100550.17
2018-11-10T14:34:34.727Z,100542.53
2018-11-10T14:37:03.588Z,100542.53
2018-11-10T14:39:31.971Z,100547.34
2018-11-10T14:42:00.378Z,100548.30
2018-11-10T14:44:28.794Z,100546.56
2018-11-10T14:46:57.181Z,100557.12
2018-11-10T14:49:25.816Z,100557.22
2018-11-10T14:51:54.271Z,100560.38
2018-11-10T14:54:22.707Z,100564.95
2018-11-10T14:56:51.054Z,100569.98
2018-11-10T14:59:19.478Z,100571.66
2018-11-10T15:01:47.864Z,100573.15
2018-11-10T15:04:16.634Z,100567.98
2018-11-10T15:06:45.033Z,100570.13
2018-11-10T15:09:13.444Z,100572.42
2018-11-10T15:11:41.911Z,100592.63
2018-11-10T15:14:10.227Z,100599.09
2018-11-10T15:16:38.607Z,100598.31
2018-11-10T15:19:07.376Z,100598.59
2018-11-10T15:21:35.743Z,100597.73
2018-11-10T15:24:04.220Z,100592.75
2018-11-10T15:26:32.643Z,100598.59
2018-11-10T15:29:01.655Z,100596.05
2018-11-10T15:31:30.041Z,100606.80
2018-11-10T15:33:58.421Z,100607.83
2018-11-10T15:36:26.790Z,100612.39
2018-11-10T15:38:55.174Z,100616.50
2018-11-10T15:41:23.996Z,100618.07
2018-11-10T15:43:52.412Z,100621.70
2018-11-10T15:46:20.763Z,100616.39
2018-11-10T15:48:49.132Z,100621.45
2018-11-10T15:51:17.525Z,100612.45
2018-11-10T15:53:45.904Z,100607.61
2018-11-10T15:56:14.281Z,100608.64
2018-11-10T15:58:42.795Z,100611.33
2018-11-10T16:01:11.155Z,100621.25
2018-11-10T16:03:39.548Z,100616.02
2018-11-10T16:06:07.928Z,100617.70
2018-11-10T16:08:36.296Z,100624.50
2018-11-10T16:11:05.036Z,100613.33
2018-11-10T16:13:33.548Z,100621.47
2018-11-10T16:16:01.955Z,100615.29
2018-11-10T16:18:30.302Z,100612.69
2018-11-10T16:20:58.797Z,100618.05
2018-11-10T16:23:27.161Z,100615.84
2018-11-10T16:25:55.525Z,100612.77
2018-11-10T16:28:23.977Z,100614.03
2018-11-10T16:30:52.358Z,100616.72
2018-11-10T16:33:20.752Z,100614.03
2018-11-10T16:35:49.099Z,100619.87
2018-11-10T16:38:17.479Z,100627.59
2018-11-10T16:40:45.920Z,100631.14
2018-11-10T16:43:14.368Z,100626.72
2018-11-10T16:45:43.190Z,100624.98
2018-11-10T16:48:11.608Z,100618.75
2018-11-10T16:50:39.985Z,100617.46
2018-11-10T16:53:08.455Z,100607.20
2018-11-10T16:55:36.815Z,100616.13
2018-11-10T16:58:05.602Z,100615.81
2018-11-10T17:00:34.046Z,100615.00
2018-11-10T17:03:02.425Z,100620.45
2018-11-10T17:05:30.768Z,100617.84
2018-11-10T17:07:59.153Z,100619.80
2018-11-10T17:10:27.528Z,100611.80
2018-11-10T17:12:56.004Z,100621.75
2018-11-10T17:15:24.457Z,100619.11
2018-11-10T17:17:53.755Z,100625.91
2018-11-10T17:20:22.617Z,100618.85
2018-11-10T17:22:51.015Z,100620.28
2018-11-10T17:25:20.064Z,100613.31
2018-11-10T17:27:48.459Z,100607.13
2018-11-10T17:30:18.625Z,100616.59
2018-11-10T17:32:47.002Z,100618.07
2018-11-10T17:35:15.729Z,100619.02
2018-11-10T17:37:44.812Z,100620.57
2018-11-10T17:40:14.248Z,100610.31
2018-11-10T17:42:42.643Z,100613.05
2018-11-10T17:45:12.901Z,100611.31
2018-11-10T17:47:41.885Z,100608.84
2018-11-10T17:50:11.603Z,100606.69
2018-11-10T17:52:41.712Z,100613.47
2018-11-10T17:55:11.728Z,100607.84
2018-11-10T17:57:40.736Z,100608.79
2018-11-10T18:00:09.081Z,100611.52
2018-11-10T18:02:37.837Z,100609.60
2018-11-10T18:05:07.916Z,100606.84
2018-11-10T18:07:36.331Z,100601.56
2018-11-10T18:10:05.389Z,100603.02
2018-11-10T18:12:33.934Z,100593.37
2018-11-10T18:15:02.415Z,100602.49
2018-11-10T18:17:30.796Z,100603.83
2018-11-10T18:19:59.161Z,100604.12
2018-11-10T18:22:27.529Z,100606.72
2018-11-10T18:24:55.910Z,100607.39
2018-11-10T18:27:24.289Z,100607.05
2018-11-10T18:29:52.659Z,100610.67
2018-11-10T18:32:21.241Z,100604.09
2018-11-10T18:34:49.640Z,100606.77
2018-11-10T18:37:18.302Z,100604.77
2018-11-10T18:39:47.279Z,100603.95
2018-11-10T18:42:15.823Z,100604.98
2018-11-10T18:44:44.183Z,100601.98
2018-11-10T18:47:12.586Z,100603.45
2018-11-10T18:49:41.016Z,100594.94
2018-11-10T18:52:09.482Z,100601.76
2018-11-10T18:54:37.842Z,100606.64
2018-11-10T18:57:06.552Z,100607.52
2018-11-10T18:59:35.791Z,100605.73
2018-11-10T19:02:04.167Z,100602.16
2018-11-10T19:04:33.334Z,100601.76
2018-11-10T19:07:01.762Z,100612.48
2018-11-10T19:09:30.201Z,100610.81
2018-11-10T19:11:58.791Z,100608.53
2018-11-10T19:14:27.193Z,100614.41
2018-11-10T19:16:55.658Z,100615.35
2018-11-10T19:19:24.026Z,100618.11
2018-11-10T19:21:52.442Z,100621.30
2018-11-10T19:24:21.215Z,100620.04
2018-11-10T19:26:49.572Z,100620.52
2018-11-10T19:29:17.932Z,100618.42
2018-11-10T19:31:46.968Z,100615.39
2018-11-10T19:34:15.618Z,100608.70
2018-11-10T19:36:43.987Z,100615.00
2018-11-10T19:39:13.393Z,100619.13
2018-11-10T19:41:42.093Z,100625.19
2018-11-10T19:44:11.008Z,100623.81
2018-11-10T19:46:40.478Z,100623.85
2018-11-10T19:49:09.374Z,100616.88
2018-11-10T19:51:37.942Z,100620.69
2018-11-10T19:54:06.222Z,100617.63
2018-11-10T19:56:34.601Z,100614.19
2018-11-10T19:59:03.011Z,100616.47
2018-11-10T20:01:31.532Z,100612.76
2018-11-10T20:03:59.943Z,100619.09
2018-11-10T20:06:28.371Z,100621.48
2018-11-10T20:08:56.721Z,100612.12
2018-11-10T20:11:25.459Z,100614.59
2018-11-10T20:13:53.858Z,100614.30
2018-11-10T20:16:22.265Z,100613.48
2018-11-10T20:18:50.622Z,100615.00
2018-11-10T20:21:19.012Z,100615.07
2018-11-10T20:23:47.588Z,100611.97
2018-11-10T20:26:15.968Z,100615.18
2018-11-10T20:28:44.388Z,100620.14
2018-11-10T20:31:12.833Z,100618.52
2018-11-10T20:33:41.263Z,100622.63
2018-11-10T20:36:09.700Z,100624.55
2018-11-10T20:38:38.068Z,100616.16
2018-11-10T20:41:07.076Z,100614.03
2018-11-10T20:43:35.516Z,100613.74
2018-11-10T20:46:03.896Z,100614.14
2018-11-10T20:48:32.256Z,100611.68
2018-11-10T20:51:00.804Z,100607.81
2018-11-10T20:53:30.466Z,100603.73
2018-11-10T20:55:58.931Z,100612.33
2018-11-10T20:58:27.401Z,100611.09
2018-11-10T21:00:55.795Z,100616.45
2018-11-10T21:03:24.749Z,100616.45
2018-11-10T21:05:53.183Z,100621.10
2018-11-10T21:08:22.071Z,100606.00
2018-11-10T21:10:50.423Z,100620.34
2018-11-10T21:13:18.811Z,100617.38
2018-11-10T21:15:47.182Z,100619.58
2018-11-10T21:18:15.613Z,100622.79
2018-11-10T21:20:44.047Z,100622.39
2018-11-10T21:23:12.484Z,100624.99
2018-11-10T21:25:40.876Z,100621.45
2018-11-10T21:28:09.236Z,100624.30
2018-11-10T21:30:37.663Z,100621.27
2018-11-10T21:33:06.076Z,100625.67
2018-11-10T21:35:35.130Z,100631.55
2018-11-10T21:38:03.441Z,100629.55
2018-11-10T21:40:32.436Z,100628.22
2018-11-10T21:43:01.030Z,100626.02
2018-11-10T21:45:29.487Z,100625.08
2018-11-10T21:47:58.061Z,100623.34
2018-11-10T21:50:26.844Z,100616.19
2018-11-10T21:52:55.239Z,100622.41
2018-11-10T21:55:23.612Z,100617.63
2018-11-10T21:57:52.025Z,100622.55
2018-11-10T22:00:21.764Z,100625.72
2018-11-10T22:02:50.661Z,100630.49
2018-11-10T22:05:19.550Z,100632.80
2018-11-10T22:07:47.928Z,100637.74
2018-11-10T22:10:17.438Z,100632.33
2018-11-10T22:12:46.104Z,100636.80
2018-11-10T22:15:16.864Z,100635.06
2018-11-10T22:17:45.802Z,100638.67
2018-11-10T22:20:16.483Z,100638.67
2018-11-10T22:22:44.971Z,100638.38
2018-11-10T22:25:13.852Z,100637.81
2018-11-10T22:27:43.625Z,100643.66
2018-11-10T22:30:15.218Z,100641.45
2018-11-10T22:32:44.097Z,100639.31
2018-11-10T22:35:12.608Z,100639.88
2018-11-10T22:37:41.092Z,100642.59
2018-11-10T22:40:11.494Z,100641.31
2018-11-10T22:42:40.275Z,100638.84
2018-11-10T22:45:10.412Z,100639.84
2018-11-10T22:47:39.439Z,100644.75
2018-11-10T22:50:09.725Z,100651.44
2018-11-10T22:52:38.212Z,100648.02
2018-11-10T22:55:07.387Z,100651.66
2018-11-10T22:57:35.840Z,100639.41
2018-11-10T23:00:05.376Z,100642.60
2018-11-10T23:02:33.854Z,100638.94
2018-11-10T23:05:02.249Z,100644.97
2018-11-10T23:07:30.749Z,100647.17
2018-11-10T23:09:59.144Z,100641.86
2018-11-10T23:12:28.077Z,100648.36
2018-11-10T23:14:56.458Z,100647.06
2018-11-10T23:17:24.860Z,100641.69
2018-11-10T23:19:53.203Z,100638.70
2018-11-10T23:22:21.552Z,100637.09
2018-11-10T23:24:49.937Z,100636.23
2018-11-10T23:27:18.311Z,100636.23
2018-11-10T23:29:46.787Z,100629.89
2018-11-10T23:32:15.157Z,100630.92
2018-11-10T23:34:43.553Z,100635.30
2018-11-10T23:37:12.181Z,100631.30
2018-11-10T23:39:40.621Z,100632.23
2018-11-10T23:42:08.963Z,100628.69
2018-11-10T23:44:37.376Z,100622.88
2018-11-10T23:47:06.029Z,100615.93
2018-11-10T23:49:34.704Z,100615.03
2018-11-10T23:52:04.034Z,100614.16
2018-11-10T23:54:32.401Z,100621.70
2018-11-10T23:57:00.983Z,100615.63
2018-11-10T23:59:29.404Z,100626.76
